Time;durP1;ratioP1;P1;durP2;ratioP2;P2;SDS_P1;SDS_P2;PMS_P1;PMS_P2;Temp;Humidity;BMP_temperature;BMP_pressure;BME280_temperature;BME280_humidity;BME280_pressure;Samples;Min_cycle;Max_cycle;Signal;HPM_P1;HPM_P2
2021/03/08 15:39:23;;;;;;;15.70;6.63;;;11.00;41.90;;;;;;5079584;28;20429;-61
2021/03/08 15:41:48;;;;;;;192.48;22.98;;;10.30;42.00;;;;;;5079334;28;20025;-63
2021/03/08 15:44:14;;;;;;;26.52;8.38;;;9.80;45.30;;;;;;5079266;28;20040;-61
2021/03/08 15:46:40;;;;;;;119.57;18.17;;;9.50;44.40;;;;;;5079270;28;20021;-64
2021/03/08 15:49:06;;;;;;;99.68;13.35;;;9.40;45.20;;;;;;5077975;28;20047;-63
2021/03/08 15:51:32;;;;;;;51.33;11.45;;;9.40;45.40;;;;;;5079147;28;20097;-63
2021/03/08 15:53:57;;;;;;;50.45;10.68;;;9.40;50.40;;;;;;5079094;28;20320;-63
2021/03/08 15:56:23;;;;;;;69.65;14.75;;;9.70;52.20;;;;;;5079123;28;20016;-62
2021/03/08 15:58:49;;;;;;;83.55;13.80;;;9.80;52.10;;;;;;5078937;28;20354;-63
2021/03/08 16:01:14;;;;;;;101.32;17.80;;;9.90;52.20;;;;;;5078973;28;20204;-62
2021/03/08 16:03:40;;;;;;;92.18;16.52;;;9.90;52.10;;;;;;5078913;28;20017;-63
2021/03/08 16:06:06;;;;;;;83.57;16.42;;;10.00;52.20;;;;;;5078833;28;20091;-63
2021/03/08 16:08:31;;;;;;;93.78;16.10;;;10.00;52.00;;;;;;5078859;28;20047;-62
2021/03/08 16:10:57;;;;;;;99.93;16.08;;;9.90;51.90;;;;;;5078710;28;20028;-64
2021/03/08 16:13:23;;;;;;;84.32;14.38;;;9.90;52.30;;;;;;5078746;28;20074;-63
2021/03/08 16:15:49;;;;;;;83.07;16.50;;;9.90;52.50;;;;;;5078694;28;20367;-62
2021/03/08 16:18:15;;;;;;;112.70;15.43;;;9.80;52.60;;;;;;5078506;28;20020;-62
2021/03/08 16:20:41;;;;;;;77.78;15.52;;;9.80;52.90;;;;;;5078600;28;20032;-62
2021/03/08 16:23:06;;;;;;;85.40;15.98;;;9.80;53.20;;;;;;5078486;28;20189;-63
2021/03/08 16:25:32;;;;;;;78.45;15.23;;;9.70;53.30;;;;;;5078535;28;20332;-62
2021/03/08 16:28:00;;;;;;;77.95;16.58;;;9.70;53.50;;;;;;5078650;28;20099;-63
2021/03/08 16:30:26;;;;;;;80.40;15.25;;;9.60;53.70;;;;;;5078348;28;20024;-63
2021/03/08 16:32:51;;;;;;;61.92;12.70;;;9.60;53.80;;;;;;5078339;28;20335;-63
2021/03/08 16:35:17;;;;;;;59.55;12.65;;;9.60;53.90;;;;;;5078250;28;20028;-64
2021/03/08 16:37:43;;;;;;;77.75;14.75;;;9.60;53.90;;;;;;5077974;28;20055;-63
2021/03/08 16:40:10;;;;;;;73.28;13.70;;;9.60;54.20;;;;;;5078101;28;20032;-63
2021/03/08 16:42:37;;;;;;;56.83;12.43;;;9.60;54.30;;;;;;5076846;28;20254;-64
2021/03/08 16:45:05;;;;;;;83.70;15.23;;;9.50;54.30;;;;;;5078083;28;20146;-62
2021/03/08 16:47:32;;;;;;;62.05;13.25;;;9.50;54.40;;;;;;5078057;28;20047;-63
2021/03/08 16:49:58;;;;;;;59.60;11.68;;;9.50;54.40;;;;;;5067926;28;20029;-62
2021/03/08 16:52:23;;;;;;;64.50;12.23;;;9.50;54.50;;;;;;5064727;28;20025;-62
2021/03/08 16:54:50;;;;;;;69.93;13.30;;;9.50;54.70;;;;;;5064690;28;20414;-63
2021/03/08 16:57:16;;;;;;;67.43;10.85;;;9.50;54.70;;;;;;5064539;28;20024;-63
2021/03/08 16:59:42;;;;;;;60.75;14.60;;;9.50;54.70;;;;;;5064586;28;20017;-63
2021/03/08 17:02:08;;;;;;;63.10;12.38;;;9.50;54.90;;;;;;5064411;28;20037;-63
2021/03/08 17:04:34;;;;;;;74.38;12.35;;;9.40;55.00;;;;;;5064472;28;20017;-63
2021/03/08 17:06:59;;;;;;;56.45;11.82;;;9.40;55.00;;;;;;5064436;28;20020;-63
2021/03/08 17:09:25;;;;;;;58.17;13.15;;;9.40;55.00;;;;;;5064350;28;20025;-62
2021/03/08 17:11:51;;;;;;;67.50;11.13;;;9.40;55.00;;;;;;5064019;28;20029;-63
2021/03/08 17:14:17;;;;;;;58.20;10.60;;;9.40;55.10;;;;;;5064245;28;20036;-63
2021/03/08 17:16:42;;;;;;;58.95;12.82;;;9.40;55.70;;;;;;5064279;28;20063;-63
2021/03/08 17:19:08;;;;;;;51.45;10.98;;;9.40;55.10;;;;;;5064116;28;20025;-62
2021/03/08 17:21:34;;;;;;;44.13;10.13;;;9.40;55.20;;;;;;5064152;28;20084;-62
2021/03/08 17:23:59;;;;;;;56.67;12.60;;;9.40;55.30;;;;;;5064116;28;20027;-64
2021/03/08 17:26:25;;;;;;;53.25;10.88;;;9.40;55.80;;;;;;5064003;28;20013;-63
2021/03/08 17:28:51;;;;;;;46.22;12.70;;;9.40;55.40;;;;;;5064335;28;20032;-63
2021/03/08 17:31:17;;;;;;;50.17;10.20;;;9.40;55.50;;;;;;5063938;28;20066;-63
2021/03/08 17:33:42;;;;;;;48.70;12.20;;;9.40;55.50;;;;;;5063957;28;20033;-63
2021/03/08 17:36:09;;;;;;;65.15;11.93;;;9.40;55.50;;;;;;5063828;28;20024;-62
2021/03/08 17:38:35;;;;;;;43.75;10.38;;;9.30;55.50;;;;;;5063572;28;20083;-60
2021/03/08 17:41:01;;;;;;;42.83;10.27;;;9.30;55.60;;;;;;5063814;28;20095;-63
2021/03/08 17:43:27;;;;;;;49.95;11.07;;;9.30;55.60;;;;;;5063683;28;20070;-62
2021/03/08 17:45:53;;;;;;;51.63;10.27;;;9.30;55.60;;;;;;5063720;28;20100;-63
2021/03/08 17:48:18;;;;;;;37.42;9.55;;;9.30;55.60;;;;;;5063648;28;20031;-63
2021/03/08 17:50:44;;;;;;;42.20;10.55;;;9.30;55.80;;;;;;5063607;28;20504;-61
2021/03/08 17:53:10;;;;;;;46.05;9.45;;;9.30;55.80;;;;;;5063542;28;20028;-63
2021/03/08 17:55:36;;;;;;;39.50;11.32;;;9.30;55.70;;;;;;5063517;28;20330;-62
2021/03/08 17:58:02;;;;;;;42.03;9.25;;;9.30;55.80;;;;;;5063400;28;20033;-63
2021/03/08 18:00:28;;;;;;;49.15;10.20;;;9.30;55.80;;;;;;5062922;28;20029;-62
2021/03/08 18:02:54;;;;;;;49.17;10.60;;;9.30;55.80;;;;;;5062934;28;20072;-63
2021/03/08 18:05:20;;;;;;;45.85;10.95;;;9.30;55.80;;;;;;5063357;28;20205;-62
2021/03/08 18:07:46;;;;;;;53.03;11.20;;;9.30;55.90;;;;;;5063252;28;20089;-63
2021/03/08 18:10:12;;;;;;;39.20;10.30;;;9.30;55.90;;;;;;5062019;28;20039;-63
2021/03/08 18:12:39;;;;;;;39.25;9.68;;;9.20;55.90;;;;;;5063156;28;20032;-62
2021/03/08 18:15:06;;;;;;;48.97;10.20;;;9.20;55.90;;;;;;5063116;28;20036;-62
2021/03/08 18:17:32;;;;;;;31.90;9.85;;;9.20;56.00;;;;;;5063007;28;20040;-62
2021/03/08 18:19:58;;;;;;;43.22;9.85;;;9.20;56.10;;;;;;5062996;28;20021;-62
2021/03/08 18:22:26;;;;;;;39.35;10.07;;;9.20;56.00;;;;;;5062996;28;20072;-62
2021/03/08 18:24:51;;;;;;;35.28;9.50;;;9.20;56.00;;;;;;5062990;28;20021;-62
2021/03/08 18:27:17;;;;;;;37.45;10.60;;;9.20;56.00;;;;;;5062854;28;20021;-63
2021/03/08 18:29:43;;;;;;;28.85;8.27;;;9.20;56.10;;;;;;5062873;28;20028;-64
2021/03/08 18:32:09;;;;;;;32.17;9.27;;;9.20;56.10;;;;;;5062822;28;20213;-63
2021/03/08 18:34:36;;;;;;;41.40;10.90;;;9.20;56.20;;;;;;5062743;28;20021;-62
2021/03/08 18:37:03;;;;;;;41.42;10.43;;;9.20;56.10;;;;;;5062455;28;20321;-63
2021/03/08 18:39:30;;;;;;;35.53;9.80;;;9.20;56.20;;;;;;5062698;28;20021;-63
2021/03/08 18:41:56;;;;;;;43.80;9.00;;;9.20;56.20;;;;;;5062909;28;20058;-63
2021/03/08 18:44:21;;;;;;;42.47;8.20;;;9.20;56.30;;;;;;5062625;28;20025;-62
2021/03/08 18:46:47;;;;;;;40.80;9.63;;;9.10;56.20;;;;;;5062579;28;20024;-62
2021/03/08 18:49:13;;;;;;;43.03;9.02;;;9.10;56.20;;;;;;5062544;28;20025;-63
2021/03/08 18:51:38;;;;;;;33.20;9.07;;;9.10;56.30;;;;;;5062461;28;20347;-62
2021/03/08 18:54:05;;;;;;;29.75;9.77;;;9.10;56.30;;;;;;5062420;28;20021;-63
2021/03/08 18:56:32;;;;;;;30.85;8.50;;;9.10;56.20;;;;;;5062417;28;20088;-62
2021/03/08 18:58:58;;;;;;;38.97;8.57;;;9.10;56.30;;;;;;5062245;28;20025;-64
2021/03/08 19:01:24;;;;;;;36.25;8.98;;;9.10;56.30;;;;;;5062319;28;20441;-62
2021/03/08 19:03:49;;;;;;;32.08;8.38;;;9.10;56.40;;;;;;5062251;28;20021;-63
2021/03/08 19:06:15;;;;;;;35.45;8.75;;;9.10;56.30;;;;;;5062210;28;20055;-63
2021/03/08 19:08:41;;;;;;;24.80;7.70;;;9.10;56.40;;;;;;5062223;28;20017;-63
2021/03/08 19:11:06;;;;;;;31.95;8.60;;;9.10;56.40;;;;;;5062157;28;20039;-62
2021/03/08 19:13:32;;;;;;;29.50;9.18;;;9.10;56.40;;;;;;5061930;28;20056;-63
2021/03/08 19:15:58;;;;;;;25.08;7.65;;;9.10;56.40;;;;;;5062078;28;20060;-64
2021/03/08 19:18:24;;;;;;;35.35;9.00;;;9.10;56.40;;;;;;5061997;28;20025;-61
2021/03/08 19:20:50;;;;;;;33.10;8.77;;;9.10;56.40;;;;;;5062051;28;20021;-62
2021/03/08 19:23:17;;;;;;;21.95;8.25;;;9.10;56.50;;;;;;5060764;28;20029;-62
2021/03/08 19:25:43;;;;;;;35.65;8.63;;;9.00;56.50;;;;;;5062018;28;20324;-61
2021/03/08 19:28:09;;;;;;;34.20;9.20;;;9.00;56.40;;;;;;5061918;28;20025;-64
2021/03/08 19:30:35;;;;;;;24.50;8.25;;;9.00;56.50;;;;;;5061889;28;20024;-61
2021/03/08 19:33:02;;;;;;;35.45;8.82;;;9.00;56.50;;;;;;5061897;28;20084;-62
2021/03/08 19:35:27;;;;;;;28.80;8.85;;;9.00;56.60;;;;;;5061850;28;20074;-63
2021/03/08 19:37:53;;;;;;;33.30;9.75;;;9.00;56.50;;;;;;5061612;28;20044;-61
2021/03/08 19:40:21;;;;;;;36.25;10.25;;;9.00;56.50;;;;;;5061819;28;20209;-63
2021/03/08 19:42:47;;;;;;;34.45;7.85;;;9.00;56.60;;;;;;5061735;28;20048;-61
2021/03/08 19:45:15;;;;;;;34.17;9.02;;;9.00;56.70;;;;;;5061820;28;20045;-63
2021/03/08 19:47:41;;;;;;;24.98;7.38;;;9.00;56.60;;;;;;5061785;28;20084;-62
2021/03/08 19:50:21;;;;;;;25.13;7.90;;;9.00;56.60;;;;;;5061735;28;20281;-63
2021/03/08 19:52:47;;;;;;;28.65;7.32;;;9.00;56.60;;;;;;5061716;28;20063;-62
2021/03/08 19:55:14;;;;;;;30.67;7.80;;;9.00;56.60;;;;;;5061918;28;20028;-62
2021/03/08 19:57:40;;;;;;;27.17;7.80;;;9.00;56.60;;;;;;5061606;28;20028;-63
2021/03/08 20:00:08;;;;;;;27.13;8.05;;;9.00;56.60;;;;;;5061636;28;20327;-64
2021/03/08 20:02:34;;;;;;;27.08;7.43;;;9.00;56.70;;;;;;5061602;28;20044;-63
2021/03/08 20:05:00;;;;;;;21.83;7.43;;;9.00;56.70;;;;;;5061591;28;20361;-63
2021/03/08 20:07:26;;;;;;;31.08;6.80;;;8.90;56.70;;;;;;5061548;28;20194;-62
2021/03/08 20:09:51;;;;;;;33.20;9.38;;;8.90;56.60;;;;;;5061571;28;20053;-62
2021/03/08 20:12:17;;;;;;;27.75;7.93;;;8.90;56.70;;;;;;5061512;28;20308;-63
2021/03/08 20:14:42;;;;;;;33.60;8.88;;;8.90;56.70;;;;;;5061496;28;20071;-61
2021/03/08 20:17:08;;;;;;;39.50;10.98;;;8.90;56.80;;;;;;5061366;28;20025;-61
2021/03/08 20:19:34;;;;;;;27.63;8.05;;;8.90;56.80;;;;;;5061462;28;20331;-62
2021/03/08 20:22:00;;;;;;;27.83;8.43;;;8.90;56.80;;;;;;5061431;28;20021;-64
2021/03/08 20:24:26;;;;;;;34.35;7.65;;;8.90;56.80;;;;;;5062257;28;20068;-63
2021/03/08 20:26:52;;;;;;;29.55;7.65;;;8.90;56.90;;;;;;5065242;28;20325;-63
2021/03/08 20:29:17;;;;;;;28.85;8.63;;;8.90;56.80;;;;;;5065140;28;20029;-63
2021/03/08 20:31:44;;;;;;;26.83;8.35;;;8.90;56.80;;;;;;5065178;28;20032;-63
2021/03/08 20:34:11;;;;;;;25.05;7.88;;;8.90;56.90;;;;;;5065121;28;20074;-63
2021/03/08 20:36:36;;;;;;;26.55;8.48;;;8.80;56.80;;;;;;5065008;28;20051;-62
2021/03/08 20:39:03;;;;;;;20.30;7.38;;;8.90;56.90;;;;;;5064841;28;20402;-63
2021/03/08 20:41:29;;;;;;;32.78;8.43;;;8.90;57.50;;;;;;5064924;28;20017;-63
2021/03/08 20:43:55;;;;;;;23.83;7.80;;;8.80;56.80;;;;;;5064890;28;20059;-63
2021/03/08 20:46:21;;;;;;;36.50;8.30;;;8.90;56.90;;;;;;5064882;28;20009;-63
2021/03/08 20:48:47;;;;;;;21.10;7.60;;;8.90;56.90;;;;;;5064787;28;20025;-63
2021/03/08 20:51:12;;;;;;;20.35;7.70;;;8.90;56.90;;;;;;5064777;28;20033;-62
2021/03/08 20:53:38;;;;;;;23.23;7.88;;;8.90;56.90;;;;;;5064706;28;20053;-62
2021/03/08 20:56:04;;;;;;;19.85;8.07;;;8.90;57.00;;;;;;5064697;28;20312;-62
2021/03/08 20:58:30;;;;;;;31.08;8.05;;;8.80;56.90;;;;;;5063375;28;20016;-63
2021/03/08 21:00:55;;;;;;;26.10;7.40;;;8.80;56.90;;;;;;5064568;28;20028;-63
2021/03/08 21:03:21;;;;;;;14.25;7.10;;;8.80;56.90;;;;;;5064589;28;20017;-63
2021/03/08 21:05:47;;;;;;;18.75;7.55;;;8.80;56.90;;;;;;5064480;28;20025;-63
2021/03/08 21:08:13;;;;;;;18.50;6.75;;;8.80;56.90;;;;;;5064474;28;20032;-62
2021/03/08 21:10:38;;;;;;;19.75;7.55;;;8.80;56.90;;;;;;5064379;28;20028;-62
2021/03/08 21:13:04;;;;;;;24.70;8.30;;;8.80;56.90;;;;;;5064348;28;20021;-63
2021/03/08 21:15:30;;;;;;;22.50;8.63;;;8.80;57.00;;;;;;5064326;28;20096;-63
2021/03/08 21:17:56;;;;;;;26.92;7.28;;;8.80;56.90;;;;;;5064158;28;20080;-63
2021/03/08 21:20:22;;;;;;;21.02;8.40;;;8.80;57.00;;;;;;5064284;28;20024;-62
2021/03/08 21:22:48;;;;;;;20.02;7.43;;;8.80;57.00;;;;;;5064133;28;20036;-62
2021/03/08 21:25:16;;;;;;;20.77;8.05;;;8.80;57.00;;;;;;5064124;28;20013;-61
2021/03/08 21:27:41;;;;;;;25.67;7.63;;;8.80;57.00;;;;;;5064138;28;20021;-63
2021/03/08 21:30:09;;;;;;;14.45;6.50;;;8.80;57.00;;;;;;5064008;28;20287;-65
2021/03/08 21:32:36;;;;;;;15.27;6.88;;;8.70;57.00;;;;;;5063997;28;20021;-61
2021/03/08 21:35:03;;;;;;;22.83;8.10;;;8.80;57.00;;;;;;5063875;28;20032;-62
2021/03/08 21:37:29;;;;;;;22.77;6.85;;;8.80;57.10;;;;;;5063616;28;20275;-63
2021/03/08 21:39:56;;;;;;;15.85;6.43;;;8.70;57.00;;;;;;5063860;28;20037;-61
2021/03/08 21:42:24;;;;;;;16.67;7.60;;;8.80;57.10;;;;;;5064078;28;20063;-63
2021/03/08 21:44:53;;;;;;;19.35;8.70;;;8.70;57.10;;;;;;5063746;28;20028;-62
2021/03/08 21:47:19;;;;;;;19.90;7.28;;;8.70;57.10;;;;;;5063748;28;20016;-63
2021/03/08 21:49:45;;;;;;;25.98;7.65;;;8.70;57.10;;;;;;5063683;28;20017;-64
2021/03/08 21:52:12;;;;;;;22.52;7.78;;;8.70;57.10;;;;;;5063673;28;20029;-62
2021/03/08 21:54:37;;;;;;;19.63;6.40;;;8.70;57.10;;;;;;5063584;28;20146;-62
2021/03/08 21:57:04;;;;;;;18.10;6.95;;;8.70;57.20;;;;;;5063580;28;20391;-63
2021/03/08 21:59:30;;;;;;;26.48;7.50;;;8.70;57.10;;;;;;5063490;28;20020;-62
2021/03/08 22:01:55;;;;;;;20.80;7.05;;;8.70;57.10;;;;;;5063421;28;20020;-63
2021/03/08 22:04:21;;;;;;;23.65;7.57;;;8.70;57.10;;;;;;5063407;28;20032;-62
2021/03/08 22:06:47;;;;;;;18.70;7.40;;;8.70;57.80;;;;;;5063573;28;20012;-63
2021/03/08 22:09:12;;;;;;;18.40;6.63;;;8.70;57.10;;;;;;5063309;28;20028;-61
2021/03/08 22:11:38;;;;;;;21.45;7.75;;;8.70;57.20;;;;;;5063218;28;20067;-62
2021/03/08 22:14:04;;;;;;;16.88;7.20;;;8.70;57.20;;;;;;5063180;28;20070;-62
2021/03/08 22:16:31;;;;;;;17.27;6.72;;;8.70;57.20;;;;;;5063198;28;20036;-63
2021/03/08 22:18:57;;;;;;;24.55;8.45;;;8.70;57.20;;;;;;5063013;28;20033;-62
2021/03/08 22:21:22;;;;;;;20.08;7.60;;;8.70;57.20;;;;;;5063095;28;20036;-62
2021/03/08 22:23:48;;;;;;;22.63;8.38;;;8.60;57.10;;;;;;5063014;28;20032;-62
2021/03/08 22:26:14;;;;;;;21.83;7.32;;;8.60;57.10;;;;;;5063009;28;20021;-62
2021/03/08 22:28:39;;;;;;;24.08;7.35;;;8.60;57.20;;;;;;5062947;28;20021;-63
2021/03/08 22:31:05;;;;;;;17.88;6.80;;;8.60;57.20;;;;;;5062888;28;20027;-63
2021/03/08 22:33:31;;;;;;;16.38;7.15;;;8.60;57.20;;;;;;5062865;28;20028;-63
2021/03/08 22:35:57;;;;;;;18.02;7.40;;;8.60;57.20;;;;;;5062772;28;20267;-62
2021/03/08 22:38:22;;;;;;;15.57;8.02;;;8.60;57.20;;;;;;5062518;28;20125;-63
2021/03/08 22:40:50;;;;;;;18.85;7.03;;;8.60;57.20;;;;;;5062685;28;20079;-64
2021/03/08 22:43:16;;;;;;;14.57;6.65;;;8.60;57.20;;;;;;5062634;28;20025;-62
2021/03/08 22:45:42;;;;;;;13.23;6.65;;;8.60;57.30;;;;;;5062643;28;20017;-63
2021/03/08 22:48:08;;;;;;;19.42;7.85;;;8.60;57.30;;;;;;5062028;28;20380;-62
2021/03/08 22:50:34;;;;;;;15.00;7.28;;;8.60;57.30;;;;;;5062801;28;20024;-63
2021/03/08 22:53:00;;;;;;;18.42;7.05;;;8.60;57.30;;;;;;5062501;28;20025;-62
2021/03/08 22:55:26;;;;;;;18.40;7.65;;;8.60;57.30;;;;;;5062396;28;20047;-64
2021/03/08 22:57:52;;;;;;;17.60;7.18;;;8.60;57.30;;;;;;5062379;28;20033;-62
2021/03/08 23:00:23;;;;;;;13.88;6.70;;;8.60;57.30;;;;;;5062352;28;20089;-64
2021/03/08 23:02:49;;;;;;;10.48;6.60;;;8.60;57.30;;;;;;5062385;28;20044;-64
2021/03/08 23:05:15;;;;;;;11.38;6.95;;;8.60;57.30;;;;;;5062184;28;20016;-61
2021/03/08 23:07:41;;;;;;;18.88;6.68;;;8.60;57.30;;;;;;5062267;28;20079;-63
2021/03/08 23:10:10;;;;;;;17.75;7.72;;;8.50;57.30;;;;;;5062176;28;20313;-63
2021/03/08 23:12:36;;;;;;;18.20;7.78;;;8.60;57.40;;;;;;5062205;28;20051;-62
2021/03/08 23:15:05;;;;;;;18.67;6.97;;;8.60;57.40;;;;;;5062148;28;20320;-63
2021/03/08 23:17:30;;;;;;;20.05;7.90;;;8.60;57.40;;;;;;5062074;28;20021;-62
2021/03/08 23:19:56;;;;;;;17.00;6.97;;;8.60;57.40;;;;;;5062042;28;20365;-62
2021/03/08 23:22:22;;;;;;;16.58;7.55;;;8.60;57.40;;;;;;5062068;28;20339;-63
2021/03/08 23:24:47;;;;;;;17.08;6.90;;;8.50;57.40;;;;;;5061968;28;20035;-63
2021/03/08 23:27:22;;;;;;;17.30;7.20;;;8.50;57.40;;;;;;5062022;28;20033;-62
2021/03/08 23:29:57;;;;;;;15.90;7.22;;;8.50;58.00;;;;;;5061918;28;20484;-63
2021/03/08 23:32:23;;;;;;;20.85;7.50;;;8.50;57.40;;;;;;5061972;28;20025;-63
2021/03/08 23:34:49;;;;;;;18.83;7.25;;;8.50;57.40;;;;;;5061901;28;20016;-63
2021/03/08 23:37:15;;;;;;;13.60;6.25;;;8.50;57.40;;;;;;5061598;28;20012;-60
2021/03/08 23:39:42;;;;;;;15.95;7.45;;;8.50;57.40;;;;;;5061907;28;20333;-62
2021/03/08 23:42:07;;;;;;;15.40;7.60;;;8.50;57.30;;;;;;5061795;28;20348;-63
2021/03/08 23:44:33;;;;;;;17.30;6.72;;;8.50;57.40;;;;;;5062140;28;20025;-64
2021/03/08 23:46:59;;;;;;;16.77;6.47;;;8.50;57.40;;;;;;5061741;28;20055;-63
2021/03/08 23:49:25;;;;;;;17.17;6.47;;;8.50;57.40;;;;;;5061723;28;20084;-61
2021/03/08 23:51:50;;;;;;;14.65;6.78;;;8.50;57.50;;;;;;5060542;28;20030;-62
2021/03/08 23:54:16;;;;;;;13.73;6.35;;;8.50;57.50;;;;;;5061664;28;20032;-63
2021/03/08 23:56:42;;;;;;;14.45;6.28;;;8.50;57.50;;;;;;5061728;28;20242;-62
2021/03/08 23:59:07;;;;;;;14.10;7.90;;;8.50;57.50;;;;;;5061999;28;20052;-62
